Terminal Aerodrome Forecast
Issued by NWS

Home | Current Version | Previous Version | Text Only | Print | Product List | Glossary On
Versions: 1 2 3 4 5 6 7 8 9 10 11 12
000
FTUS44 KJAN 192300 RRA
TAFHKS
TAF
KHKS 192344Z 2000/2024 06004KT 6SM -RA FEW010 BKN025 OVC070
     FM200300 05006KT 4SM -RA BKN007 OVC025
     FM200900 03005KT 5SM BR BKN003 OVC015
     FM201500 02007KT P6SM BKN015 OVC030
     FM202000 02008KT P6SM SCT030 BKN050=

USA.gov is the U.S. government's official web portal to all federal, state and local government web resources and services.